createdAt,value
2019-03-06T00:00:10.933Z,100364.34
2019-03-06T00:02:44.247Z,100370.91
2019-03-06T00:05:16.006Z,100381.18
2019-03-06T00:07:47.793Z,100373.41
2019-03-06T00:10:24.296Z,100384.00
2019-03-06T00:12:56.169Z,100372.58
2019-03-06T00:15:27.854Z,100375.09
2019-03-06T00:17:59.644Z,100382.73
2019-03-06T00:20:31.446Z,100389.77
2019-03-06T00:23:03.138Z,100387.61
2019-03-06T00:25:34.805Z,100388.78
2019-03-06T00:28:06.850Z,100391.20
2019-03-06T00:30:38.632Z,100398.65
2019-03-06T00:33:10.618Z,100397.38
2019-03-06T00:35:45.170Z,100393.30
2019-03-06T00:38:16.887Z,100401.77
2019-03-06T00:40:53.682Z,100396.30
2019-03-06T00:43:25.360Z,100400.34
2019-03-06T00:45:56.959Z,100404.73
2019-03-06T00:48:28.604Z,100401.29
2019-03-06T00:51:00.256Z,100399.56
2019-03-06T00:53:31.975Z,100403.41
2019-03-06T00:56:03.829Z,100404.80
2019-03-06T00:58:35.730Z,100408.18
2019-03-06T01:01:07.610Z,100414.10
2019-03-06T01:03:39.342Z,100414.05
2019-03-06T01:06:11.008Z,100416.55
2019-03-06T01:08:43.046Z,100412.56
2019-03-06T01:11:15.667Z,100422.31
2019-03-06T01:13:47.380Z,100421.23
2019-03-06T01:16:19.031Z,100426.45
2019-03-06T01:18:50.764Z,100430.84
2019-03-06T01:21:23.384Z,100426.15
2019-03-06T01:23:55.131Z,100428.02
2019-03-06T01:26:26.865Z,100437.23
2019-03-06T01:28:58.601Z,100440.28
2019-03-06T01:31:30.358Z,100437.02
2019-03-06T01:34:29.694Z,100435.00
2019-03-06T01:37:22.483Z,100440.17
2019-03-06T01:40:25.138Z,100446.81
2019-03-06T01:43:08.717Z,100443.85
2019-03-06T01:45:40.618Z,100454.94
2019-03-06T01:48:12.343Z,100451.43
2019-03-06T01:50:43.987Z,100459.61
2019-03-06T01:53:15.686Z,100463.53
2019-03-06T01:55:47.417Z,100469.84
2019-03-06T01:58:19.142Z,100471.88
2019-03-06T02:00:50.803Z,100462.09
2019-03-06T02:03:23.634Z,100467.95
2019-03-06T02:05:55.360Z,100467.24
2019-03-06T02:08:27.077Z,100474.20
2019-03-06T02:10:58.738Z,100469.91
2019-03-06T02:13:30.454Z,100467.55
2019-03-06T02:16:02.160Z,100468.83
2019-03-06T02:18:33.879Z,100473.80
2019-03-06T02:21:05.746Z,100492.49
2019-03-06T02:23:37.658Z,100486.16
2019-03-06T02:26:09.404Z,100487.88
2019-03-06T02:28:41.127Z,100497.80
2019-03-06T02:31:12.921Z,100495.01
2019-03-06T02:33:44.714Z,100498.11
2019-03-06T02:36:16.519Z,100505.03
2019-03-06T02:38:48.155Z,100504.90
2019-03-06T02:41:19.899Z,100497.46
2019-03-06T02:43:51.664Z,100496.34
2019-03-06T02:46:24.286Z,100500.06
2019-03-06T02:48:55.992Z,100510.56
2019-03-06T02:51:27.672Z,100517.77
2019-03-06T02:53:59.484Z,100518.17
2019-03-06T02:56:31.363Z,100519.38
2019-03-06T02:59:11.034Z,100523.33
2019-03-06T03:02:04.536Z,100522.84
2019-03-06T03:04:50.875Z,100530.95
2019-03-06T03:07:22.699Z,100536.27
2019-03-06T03:09:54.484Z,100533.56
2019-03-06T03:12:26.207Z,100538.22
2019-03-06T03:14:57.932Z,100547.59
2019-03-06T03:17:29.592Z,100540.30
2019-03-06T03:20:01.377Z,100548.13
2019-03-06T03:22:34.511Z,100555.44
2019-03-06T03:25:06.638Z,100557.11
2019-03-06T03:27:38.298Z,100554.52
2019-03-06T03:30:12.545Z,100554.38
2019-03-06T03:32:44.332Z,100565.75
2019-03-06T03:35:16.130Z,100569.78
2019-03-06T03:37:47.780Z,100570.08
2019-03-06T03:40:19.441Z,100572.73
2019-03-06T03:42:51.196Z,100581.02
2019-03-06T03:45:22.948Z,100581.73
2019-03-06T03:47:55.648Z,100588.50
2019-03-06T03:50:28.636Z,100581.75
2019-03-06T03:53:00.394Z,100588.91
2019-03-06T03:55:32.041Z,100596.55
2019-03-06T03:58:03.893Z,100592.48
2019-03-06T04:00:35.755Z,100595.02
2019-03-06T04:03:07.960Z,100597.09
2019-03-06T04:05:39.683Z,100599.80
2019-03-06T04:08:11.355Z,100601.98
2019-03-06T04:10:42.998Z,100606.23
2019-03-06T04:13:14.641Z,100613.36
2019-03-06T04:15:46.255Z,100608.84
2019-03-06T04:18:17.950Z,100611.68
2019-03-06T04:20:49.569Z,100611.23
2019-03-06T04:23:21.534Z,100620.93
2019-03-06T04:25:53.229Z,100634.48
2019-03-06T04:28:24.901Z,100626.43
2019-03-06T04:30:56.488Z,100633.82
2019-03-06T04:33:28.184Z,100636.61
2019-03-06T04:35:59.836Z,100631.70
2019-03-06T04:38:31.542Z,100632.63
2019-03-06T04:41:03.149Z,100635.87
2019-03-06T04:43:34.780Z,100648.36
2019-03-06T04:46:06.386Z,100662.66
2019-03-06T04:48:38.175Z,100658.80
2019-03-06T04:51:09.759Z,100654.54
2019-03-06T04:53:41.426Z,100660.11
2019-03-06T04:56:13.160Z,100664.57
2019-03-06T04:58:44.766Z,100665.74
2019-03-06T05:01:16.364Z,100670.13
2019-03-06T05:03:48.058Z,100664.30
2019-03-06T05:06:19.806Z,100671.23
2019-03-06T05:08:51.424Z,100674.43
2019-03-06T05:11:23.013Z,100675.80
2019-03-06T05:13:54.629Z,100676.69
2019-03-06T05:16:44.175Z,100681.59
2019-03-06T05:19:15.879Z,100684.25
2019-03-06T05:21:47.559Z,100684.30
2019-03-06T05:24:19.242Z,100691.45
2019-03-06T05:26:50.857Z,100692.14
2019-03-06T05:29:22.505Z,100692.34
2019-03-06T05:32:30.757Z,100694.31
2019-03-06T05:35:05.116Z,100697.00
2019-03-06T05:38:15.142Z,100697.33
2019-03-06T05:40:46.730Z,100699.22
2019-03-06T05:43:18.399Z,100706.62
2019-03-06T05:45:50.408Z,100706.22
2019-03-06T05:48:22.025Z,100705.86
2019-03-06T05:50:53.623Z,100710.68
2019-03-06T05:53:25.290Z,100711.41
2019-03-06T05:55:57.162Z,100715.87
2019-03-06T05:58:28.744Z,100706.22
2019-03-06T06:01:00.422Z,100711.77
2019-03-06T06:03:32.087Z,100713.54
2019-03-06T06:06:04.118Z,100715.67
2019-03-06T06:08:35.741Z,100716.20
2019-03-06T06:11:07.640Z,100716.88
2019-03-06T06:13:39.243Z,100725.98
2019-03-06T06:16:10.855Z,100731.64
2019-03-06T06:18:42.475Z,100737.69
2019-03-06T06:21:32.517Z,100741.02
2019-03-06T06:24:13.718Z,100736.72
2019-03-06T06:26:45.328Z,100729.30
2019-03-06T06:29:17.003Z,100745.65
2019-03-06T06:31:48.609Z,100748.73
2019-03-06T06:34:20.489Z,100742.09
2019-03-06T06:36:52.099Z,100746.59
2019-03-06T06:39:23.769Z,100746.88
2019-03-06T06:41:55.426Z,100743.81
2019-03-06T06:44:27.605Z,100742.48
2019-03-06T06:46:59.415Z,100745.81
2019-03-06T06:49:31.072Z,100749.48
2019-03-06T06:52:23.097Z,100750.33
2019-03-06T06:55:05.769Z,100750.95
2019-03-06T06:58:15.010Z,100758.59
2019-03-06T07:01:19.705Z,100761.40
2019-03-06T07:04:42.226Z,100761.23
2019-03-06T07:07:50.743Z,100765.85
2019-03-06T07:10:39.948Z,100765.70
2019-03-06T07:13:34.771Z,100766.09
2019-03-06T07:16:43.509Z,100766.77
2019-03-06T07:19:34.036Z,100769.73
2019-03-06T07:22:20.331Z,100767.79
2019-03-06T07:24:59.707Z,100777.36
2019-03-06T07:27:59.195Z,100773.02
2019-03-06T07:30:39.592Z,100771.02
2019-03-06T07:33:42.336Z,100766.17
2019-03-06T08:01:35.533Z,100792.06
2019-03-06T08:04:11.986Z,100788.70
2019-03-06T08:06:47.583Z,100784.73
2019-03-06T08:09:20.672Z,100790.70
2019-03-06T08:12:14.287Z,100794.16
2019-03-06T08:14:54.849Z,100792.45
2019-03-06T08:17:42.552Z,100792.30
2019-03-06T08:20:45.243Z,100799.26
2019-03-06T08:23:23.175Z,100797.20
2019-03-06T08:25:54.849Z,100796.13
2019-03-06T08:28:26.511Z,100795.14
2019-03-06T08:31:10.167Z,100800.16
2019-03-06T08:33:41.833Z,100800.60
2019-03-06T08:36:13.505Z,100803.59
2019-03-06T08:38:45.180Z,100803.40
2019-03-06T08:41:16.807Z,100807.27
2019-03-06T08:43:48.498Z,100805.70
2019-03-06T08:46:40.111Z,100802.59
2019-03-06T08:49:43.660Z,100808.55
2019-03-06T08:52:21.419Z,100801.77
2019-03-06T08:55:15.737Z,100807.48
2019-03-06T08:58:15.495Z,100811.08
2019-03-06T09:00:59.261Z,100814.53
2019-03-06T09:03:46.153Z,100807.12
2019-03-06T09:06:32.914Z,100814.02
2019-03-06T09:09:25.452Z,100809.33
2019-03-06T09:12:15.231Z,100809.56
2019-03-06T09:15:11.879Z,100801.17
2019-03-06T09:18:08.872Z,100798.14
2019-03-06T09:21:08.468Z,100798.61
2019-03-06T09:23:57.506Z,100799.86
2019-03-06T09:26:48.024Z,100788.57
2019-03-06T09:29:41.670Z,100793.31
2019-03-06T09:32:32.450Z,100790.63
2019-03-06T09:35:23.311Z,100788.72
2019-03-06T09:38:12.584Z,100791.22
2019-03-06T09:41:05.873Z,100792.58
2019-03-06T09:43:56.439Z,100783.02
2019-03-06T09:46:45.609Z,100787.02
2019-03-06T09:49:46.754Z,100787.30
2019-03-06T09:52:52.714Z,100779.16
2019-03-06T09:55:43.425Z,100779.25
2019-03-06T09:58:43.075Z,100771.48
2019-03-06T10:01:32.263Z,100769.70
2019-03-06T10:04:23.300Z,100768.73
2019-03-06T10:07:12.439Z,100769.93
2019-03-06T10:10:08.880Z,100767.92
2019-03-06T10:12:54.822Z,100767.75
2019-03-06T10:15:37.136Z,100762.69
2019-03-06T10:18:31.980Z,100750.33
2019-03-06T10:21:04.780Z,100747.30
2019-03-06T10:23:36.478Z,100742.81
2019-03-06T10:26:08.153Z,100743.81
2019-03-06T10:28:42.901Z,100733.50
2019-03-06T10:31:16.907Z,100742.82
2019-03-06T10:33:50.692Z,100744.28
2019-03-06T10:36:24.980Z,100738.70
2019-03-06T10:38:58.283Z,100733.72
2019-03-06T10:41:32.243Z,100723.12
2019-03-06T10:44:07.604Z,100716.91
2019-03-06T10:46:42.644Z,100726.26
2019-03-06T10:49:16.607Z,100721.61
2019-03-06T10:51:48.721Z,100724.84
2019-03-06T10:54:23.080Z,100727.15
2019-03-06T10:56:56.809Z,100728.25
2019-03-06T10:59:28.879Z,100726.69
2019-03-06T11:02:00.649Z,100728.66
2019-03-06T11:05:03.667Z,100726.06
2019-03-06T11:07:35.339Z,100721.24
2019-03-06T11:10:08.151Z,100713.62
2019-03-06T11:12:40.908Z,100715.33
2019-03-06T11:15:12.702Z,100710.98
2019-03-06T11:17:44.655Z,100708.50
2019-03-06T11:20:19.011Z,100702.02
2019-03-06T11:22:51.698Z,100697.78
2019-03-06T11:25:23.744Z,100690.23
2019-03-06T11:27:55.602Z,100697.56
2019-03-06T11:30:33.330Z,100690.67
2019-03-06T11:33:05.834Z,100690.70
2019-03-06T11:35:37.673Z,100681.55
2019-03-06T11:38:09.711Z,100680.63
2019-03-06T11:40:42.453Z,100677.17
2019-03-06T11:43:15.649Z,100666.41
2019-03-06T11:45:47.345Z,100674.10
2019-03-06T11:48:19.109Z,100670.56
2019-03-06T11:50:51.000Z,100655.15
2019-03-06T11:53:22.693Z,100660.91
2019-03-06T11:55:54.539Z,100656.71
2019-03-06T11:58:26.466Z,100661.97
2019-03-06T12:00:58.158Z,100650.19
2019-03-06T12:03:30.123Z,100652.52
2019-03-06T12:06:01.896Z,100647.30
2019-03-06T12:08:33.584Z,100647.89
2019-03-06T12:11:05.288Z,100653.14
2019-03-06T12:13:37.142Z,100644.09
2019-03-06T12:16:10.009Z,100630.34
2019-03-06T12:18:41.781Z,100623.48
2019-03-06T12:21:13.466Z,100622.72
2019-03-06T12:23:45.553Z,100611.05
2019-03-06T12:26:17.311Z,100601.40
2019-03-06T12:28:49.284Z,100600.78
2019-03-06T12:31:21.378Z,100587.98
2019-03-06T12:33:53.350Z,100590.02
2019-03-06T12:36:25.111Z,100581.83
2019-03-06T12:38:56.794Z,100574.64
2019-03-06T12:41:28.435Z,100571.91
2019-03-06T12:44:00.123Z,100571.03
2019-03-06T12:46:32.411Z,100554.89
2019-03-06T12:49:09.096Z,100553.28
2019-03-06T12:51:41.202Z,100542.02
2019-03-06T12:54:12.886Z,100539.84
2019-03-06T12:56:44.505Z,100541.15
2019-03-06T12:59:16.180Z,100541.80
2019-03-06T13:01:48.089Z,100537.28
2019-03-06T13:04:20.750Z,100532.59
2019-03-06T13:06:52.725Z,100528.43
2019-03-06T13:09:24.557Z,100534.50
2019-03-06T13:11:56.494Z,100526.67
2019-03-06T13:14:30.466Z,100529.88
2019-03-06T13:17:01.748Z,100524.45
2019-03-06T13:19:33.412Z,100516.72
2019-03-06T13:22:11.067Z,100511.80
2019-03-06T13:24:38.402Z,100509.26
2019-03-06T13:27:10.031Z,100516.52
2019-03-06T13:29:41.834Z,100500.90
2019-03-06T13:32:13.564Z,100505.93
2019-03-06T13:34:52.487Z,100500.16
2019-03-06T13:37:24.574Z,100491.72
2019-03-06T13:39:56.486Z,100486.27
2019-03-06T13:42:28.207Z,100493.23
2019-03-06T13:44:59.811Z,100486.48
2019-03-06T13:48:42.613Z,100490.69
2019-03-06T13:51:15.194Z,100482.33
2019-03-06T13:53:46.912Z,100459.84
2019-03-06T13:56:18.590Z,100457.36
2019-03-06T13:58:50.273Z,100453.38
2019-03-06T14:01:22.026Z,100458.09
2019-03-06T14:03:53.901Z,100446.78
2019-03-06T14:06:25.585Z,100454.25
2019-03-06T14:08:57.266Z,100456.11
2019-03-06T14:11:28.978Z,100456.25
2019-03-06T14:14:00.672Z,100463.45
2019-03-06T14:16:32.550Z,100452.47
2019-03-06T14:19:04.160Z,100448.07
2019-03-06T14:21:35.855Z,100444.50
2019-03-06T14:24:07.543Z,100436.34
2019-03-06T14:26:40.516Z,100422.97
2019-03-06T14:29:12.149Z,100415.95
2019-03-06T14:31:43.772Z,100412.88
2019-03-06T14:34:15.459Z,100419.16
2019-03-06T14:36:47.165Z,100422.95
2019-03-06T14:39:30.034Z,100417.52
2019-03-06T14:42:01.658Z,100410.73
2019-03-06T14:44:33.432Z,100406.33
2019-03-06T14:47:05.038Z,100400.83
2019-03-06T14:49:36.915Z,100406.58
2019-03-06T14:52:08.594Z,100412.95
2019-03-06T14:54:40.234Z,100396.98
2019-03-06T14:57:11.847Z,100400.92
2019-03-06T14:59:43.538Z,100410.45
2019-03-06T15:02:15.313Z,100399.35
2019-03-06T15:04:47.007Z,100397.02
2019-03-06T15:07:18.685Z,100395.01
2019-03-06T15:31:51.854Z,100328.28
2019-03-06T15:34:23.462Z,100328.69
2019-03-06T15:36:55.147Z,100319.20
2019-03-06T15:39:42.552Z,100319.90
2019-03-06T15:42:11.850Z,100317.56
2019-03-06T15:44:43.778Z,100306.20
2019-03-06T15:47:15.631Z,100315.39
2019-03-06T15:49:47.523Z,100303.73
2019-03-06T15:52:19.127Z,100298.69
2019-03-06T15:54:52.699Z,100299.52
2019-03-06T15:57:24.477Z,100304.91
2019-03-06T15:59:56.100Z,100307.97
2019-03-06T16:02:28.129Z,100296.51
2019-03-06T16:04:59.819Z,100296.66
2019-03-06T16:07:31.432Z,100297.02
2019-03-06T16:10:03.037Z,100284.50
2019-03-06T16:12:34.808Z,100286.25
2019-03-06T16:15:06.557Z,100279.41
2019-03-06T16:17:38.322Z,100275.04
2019-03-06T16:20:14.399Z,100279.44
2019-03-06T16:22:46.124Z,100287.18
2019-03-06T16:25:17.872Z,100283.92
2019-03-06T16:27:49.485Z,100283.42
2019-03-06T16:30:21.108Z,100288.30
2019-03-06T16:32:52.747Z,100280.00
2019-03-06T16:35:24.505Z,100269.76
2019-03-06T16:37:56.109Z,100265.72
2019-03-06T16:40:30.556Z,100260.71
2019-03-06T16:43:02.435Z,100259.75
2019-03-06T16:45:34.042Z,100255.70
2019-03-06T16:48:05.879Z,100251.70
2019-03-06T16:50:37.569Z,100244.73
2019-03-06T16:53:09.549Z,100246.09
2019-03-06T16:55:41.530Z,100245.36
2019-03-06T16:58:13.150Z,100253.17
2019-03-06T17:00:44.834Z,100250.37
2019-03-06T17:03:16.602Z,100246.09
2019-03-06T17:05:48.288Z,100239.86
2019-03-06T17:08:19.985Z,100240.61
2019-03-06T17:10:51.598Z,100240.73
2019-03-06T17:13:23.213Z,100250.73
2019-03-06T17:15:54.903Z,100244.62
2019-03-06T17:18:26.687Z,100242.81
2019-03-06T17:21:00.581Z,100240.83
2019-03-06T17:23:36.324Z,100237.65
2019-03-06T17:26:13.568Z,100230.23
2019-03-06T17:28:47.403Z,100235.33
2019-03-06T17:31:22.334Z,100222.04
2019-03-06T17:33:56.728Z,100208.47
2019-03-06T17:36:28.912Z,100203.61
2019-03-06T17:39:02.225Z,100196.16
2019-03-06T17:41:37.827Z,100192.13
2019-03-06T17:44:11.195Z,100175.66
2019-03-06T17:46:43.874Z,100178.44
2019-03-06T17:49:17.936Z,100181.37
2019-03-06T17:51:52.961Z,100188.45
2019-03-06T17:54:25.060Z,100190.41
2019-03-06T17:56:57.267Z,100194.91
2019-03-06T17:59:30.281Z,100186.11
2019-03-06T18:02:02.470Z,100185.23
2019-03-06T18:04:34.136Z,100184.40
2019-03-06T18:07:06.286Z,100186.11
2019-03-06T18:09:38.328Z,100185.23
2019-03-06T18:12:10.329Z,100186.45
2019-03-06T18:14:42.503Z,100180.84
2019-03-06T18:17:14.483Z,100176.34
2019-03-06T18:19:46.610Z,100166.08
2019-03-06T18:22:18.623Z,100166.35
2019-03-06T18:24:51.154Z,100161.22
2019-03-06T18:27:26.601Z,100156.19
2019-03-06T18:30:00.469Z,100148.03
2019-03-06T18:32:34.594Z,100147.40
2019-03-06T18:35:07.358Z,100148.23
2019-03-06T18:37:40.587Z,100148.61
2019-03-06T18:40:16.685Z,100141.89
2019-03-06T18:42:51.096Z,100141.39
2019-03-06T18:45:25.909Z,100141.63
2019-03-06T18:47:58.333Z,100146.98
2019-03-06T18:50:30.355Z,100141.35
2019-03-06T18:53:02.175Z,100123.45
2019-03-06T18:55:35.531Z,100121.84
2019-03-06T18:58:08.397Z,100117.34
2019-03-06T19:00:41.699Z,100118.78
2019-03-06T19:03:16.499Z,100108.86
2019-03-06T19:05:50.725Z,100106.66
2019-03-06T19:08:31.035Z,100095.67
2019-03-06T19:11:00.894Z,100093.35
2019-03-06T19:17:23.425Z,100084.81
2019-03-06T19:19:56.190Z,100071.98
2019-03-06T19:22:31.122Z,100068.58
2019-03-06T19:25:03.383Z,100071.02
2019-03-06T19:27:35.100Z,100077.12
2019-03-06T19:30:14.417Z,100073.94
2019-03-06T19:32:46.434Z,100068.20
2019-03-06T19:35:19.611Z,100058.35
2019-03-06T19:37:51.732Z,100049.34
2019-03-06T19:40:23.583Z,100045.78
2019-03-06T19:42:55.450Z,100040.38
2019-03-06T19:45:27.292Z,100037.59
2019-03-06T19:47:59.223Z,100038.80
2019-03-06T19:50:30.977Z,100027.48
2019-03-06T19:53:02.805Z,100029.89
2019-03-06T19:55:34.480Z,100028.30
2019-03-06T19:58:07.436Z,100027.58
2019-03-06T20:00:39.176Z,100018.56
2019-03-06T20:03:11.098Z,100017.59
2019-03-06T20:05:43.278Z,100014.67
2019-03-06T20:08:17.303Z,100015.75
2019-03-06T20:10:49.899Z,100017.45
2019-03-06T20:13:21.810Z,100027.28
2019-03-06T20:15:53.555Z,100017.06
2019-03-06T20:18:25.445Z,100017.81
2019-03-06T20:20:57.269Z,100019.86
2019-03-06T20:23:29.113Z,100021.69
2019-03-06T20:26:00.894Z,100020.22
2019-03-06T20:28:32.862Z,100017.81
2019-03-06T20:31:04.841Z,100013.16
2019-03-06T20:33:36.643Z,100017.22
2019-03-06T20:36:08.525Z,100015.50
2019-03-06T20:38:41.045Z,100008.43
2019-03-06T20:41:13.132Z,100010.98
2019-03-06T20:43:45.417Z,100010.61
2019-03-06T20:46:17.121Z,100002.94
2019-03-06T20:48:48.960Z,99994.89
2019-03-06T20:51:20.663Z,99992.58
2019-03-06T20:53:52.614Z,99994.52
2019-03-06T20:56:25.412Z,99986.48
2019-03-06T20:58:57.859Z,99988.52
2019-03-06T21:01:29.901Z,99986.22
2019-03-06T21:04:02.708Z,99987.92
2019-03-06T21:06:36.320Z,99978.82
2019-03-06T21:09:07.938Z,99971.75
2019-03-06T21:11:40.204Z,99964.22
2019-03-06T21:14:12.261Z,99962.15
2019-03-06T21:16:43.939Z,99957.75
2019-03-06T21:19:16.305Z,99955.92
2019-03-06T21:21:49.392Z,99954.34
2019-03-06T21:24:21.100Z,99947.64
2019-03-06T21:26:52.702Z,99943.49
2019-03-06T21:29:24.327Z,99937.98
2019-03-06T21:31:55.921Z,99939.05
2019-03-06T21:34:27.603Z,99932.86
2019-03-06T21:36:59.361Z,99928.94
2019-03-06T21:39:30.995Z,99924.33
2019-03-06T21:42:02.690Z,99918.73
2019-03-06T21:44:34.464Z,99918.09
2019-03-06T21:47:06.198Z,99912.64
2019-03-06T21:49:37.961Z,99910.05
2019-03-06T21:52:09.627Z,99905.19
2019-03-06T21:54:41.306Z,99900.20
2019-03-06T21:57:14.055Z,99893.98
2019-03-06T21:59:45.747Z,99890.33
2019-03-06T22:02:17.443Z,99891.80
2019-03-06T22:04:49.229Z,99892.03
2019-03-06T22:07:20.953Z,99881.09
2019-03-06T22:09:52.744Z,99882.77
2019-03-06T22:12:24.413Z,99883.17
2019-03-06T22:14:56.181Z,99870.34
2019-03-06T22:17:27.780Z,99871.82
2019-03-06T22:19:59.463Z,99864.02
2019-03-06T22:22:31.169Z,99856.99
2019-03-06T22:25:02.895Z,99856.86
2019-03-06T22:27:34.740Z,99855.42
2019-03-06T22:30:07.533Z,99852.48
2019-03-06T22:32:39.197Z,99851.27
2019-03-06T22:35:10.926Z,99845.55
2019-03-06T22:37:42.880Z,99840.80
2019-03-06T22:40:15.422Z,99848.45
2019-03-06T22:42:47.026Z,99849.94
2019-03-06T22:45:18.747Z,99847.52
2019-03-06T22:47:50.488Z,99838.38
2019-03-06T22:50:22.231Z,99832.77
2019-03-06T22:52:54.077Z,99825.23
2019-03-06T22:55:25.674Z,99814.15
2019-03-06T22:57:57.265Z,99807.22
2019-03-06T23:00:49.051Z,99797.84
2019-03-06T23:03:21.329Z,99793.70
2019-03-06T23:05:52.983Z,99795.54
2019-03-06T23:08:24.650Z,99796.84
2019-03-06T23:10:56.302Z,99795.74
2019-03-06T23:13:28.248Z,99787.48
2019-03-06T23:15:59.952Z,99785.53
2019-03-06T23:18:31.588Z,99784.43
2019-03-06T23:21:03.224Z,99776.77
2019-03-06T23:23:34.977Z,99772.02
2019-03-06T23:26:06.736Z,99769.34
2019-03-06T23:28:38.407Z,99765.32
2019-03-06T23:31:10.021Z,99758.73
2019-03-06T23:33:41.784Z,99751.44
2019-03-06T23:36:13.685Z,99756.56
2019-03-06T23:38:45.585Z,99750.70
2019-03-06T23:41:17.264Z,99745.48
2019-03-06T23:43:48.928Z,99734.64
2019-03-06T23:46:20.545Z,99739.63
2019-03-06T23:48:52.496Z,99731.86
2019-03-06T23:51:37.917Z,99722.59
2019-03-06T23:54:09.528Z,99719.81
2019-03-06T23:56:41.205Z,99706.41
2019-03-06T23:59:12.861Z,99710.08
